Itatiba, Brazil
Current Conditions -  °F | °C
As of 10:00 PM on Monday 24 Nov 2014 (Local Time) from SBKP Reporting Station
Light Rain Light Rain  
Wind Chill: 70°   Ceiling: 7000
Heat Index: 70°   Visibility: 6mi
Dew Point: 70°   Wind: 10mph
Humidity: 100%   Direction: 190°S
Pressure: 30"   Gusts: NA
Location:  23.01°S, 46.84°W
Report Text: SBKP 250000Z 19009KT 9000 -RA SCT004 OVC070 21/21 Q1016 RETS
Loading
Personal Weather Stations






























Interactive Weather Map New forecast layout! Learn more

10-Day Weather Forecast

Advertisements
Track Severe Weather on mobile